createdAt,value
2018-05-17T00:01:02.138Z,14.43
2018-05-17T00:03:29.825Z,15.20
2018-05-17T00:05:57.682Z,14.90
2018-05-17T00:08:25.535Z,14.20
2018-05-17T00:10:53.299Z,15.60
2018-05-17T00:13:21.076Z,15.10
2018-05-17T00:15:48.836Z,15.30
2018-05-17T00:18:16.620Z,15.53
2018-05-17T00:20:44.394Z,15.80
2018-05-17T00:23:12.849Z,15.83
2018-05-17T00:25:40.500Z,15.87
2018-05-17T00:28:08.197Z,15.73
2018-05-17T00:30:36.748Z,15.77
2018-05-17T00:33:04.451Z,16.27
2018-05-17T00:35:32.994Z,16.60
2018-05-17T00:38:00.669Z,16.60
2018-05-17T00:40:28.291Z,18.43
2018-05-17T00:42:55.931Z,18.27
2018-05-17T00:45:24.571Z,18.70
2018-05-17T00:47:52.430Z,18.57
2018-05-17T00:50:20.301Z,17.43
2018-05-17T00:53:00.151Z,17.97
2018-05-17T00:55:27.948Z,18.30
2018-05-17T00:57:56.496Z,18.37
2018-05-17T01:00:24.136Z,19.07
2018-05-17T01:02:51.822Z,18.53
2018-05-17T01:05:19.472Z,19.03
2018-05-17T01:07:47.181Z,19.93
2018-05-17T01:10:14.942Z,20.07
2018-05-17T01:12:42.708Z,18.67
2018-05-17T01:15:10.545Z,19.93
2018-05-17T01:17:38.337Z,19.60
2018-05-17T01:20:05.970Z,18.67
2018-05-17T01:22:33.588Z,20.10
2018-05-17T01:25:02.053Z,20.73
2018-05-17T01:27:30.492Z,20.60
2018-05-17T01:29:58.157Z,20.13
2018-05-17T01:32:26.225Z,19.93
2018-05-17T01:34:53.939Z,20.83
2018-05-17T01:37:33.376Z,20.10
2018-05-17T01:40:01.851Z,19.70
2018-05-17T01:42:30.392Z,20.90
2018-05-17T01:44:58.063Z,19.93
2018-05-17T01:47:25.710Z,21.63
2018-05-17T01:49:53.481Z,21.17
2018-05-17T01:52:21.348Z,21.67
2018-05-17T01:54:49.029Z,21.97
2018-05-17T01:57:16.791Z,21.23
2018-05-17T01:59:44.540Z,21.70
2018-05-17T02:02:12.960Z,20.90
2018-05-17T02:04:40.713Z,22.43
2018-05-17T02:07:08.551Z,22.33
2018-05-17T02:09:36.249Z,22.73
2018-05-17T02:12:04.081Z,24.23
2018-05-17T02:14:31.712Z,23.37
2018-05-17T02:16:59.407Z,24.03
2018-05-17T02:19:27.273Z,24.80
2018-05-17T02:21:55.046Z,23.00
2018-05-17T02:24:22.907Z,23.50
2018-05-17T02:26:50.577Z,24.33
2018-05-17T02:29:18.437Z,24.30
2018-05-17T02:31:46.225Z,24.63
2018-05-17T02:34:13.877Z,24.93
2018-05-17T02:36:42.547Z,24.37
2018-05-17T02:39:10.415Z,25.50
2018-05-17T02:41:38.279Z,23.87
2018-05-17T02:44:06.059Z,25.50
2018-05-17T02:46:33.704Z,25.23
2018-05-17T02:49:01.420Z,25.40
2018-05-17T02:51:30.060Z,25.57
2018-05-17T02:53:57.753Z,27.30
2018-05-17T02:56:25.591Z,26.13
2018-05-17T02:58:53.455Z,26.30
2018-05-17T03:01:21.250Z,28.00
2018-05-17T03:03:48.910Z,26.70
2018-05-17T03:06:16.556Z,26.00
2018-05-17T03:08:44.188Z,25.97
2018-05-17T03:11:11.845Z,26.93
2018-05-17T03:13:39.483Z,26.73
2018-05-17T03:16:07.876Z,27.27
2018-05-17T03:18:36.315Z,27.60
2018-05-17T03:21:04.067Z,26.43
2018-05-17T03:23:31.688Z,27.70
2018-05-17T03:25:59.482Z,26.97
2018-05-17T03:28:27.145Z,28.10
2018-05-17T03:30:54.837Z,27.53
2018-05-17T03:33:22.601Z,27.63
2018-05-17T03:35:50.316Z,27.70
2018-05-17T03:38:17.954Z,27.77
2018-05-17T03:40:46.344Z,27.57
2018-05-17T03:43:14.060Z,28.57
2018-05-17T03:45:41.719Z,27.77
2018-05-17T03:48:09.385Z,29.07
2018-05-17T03:50:37.123Z,28.27
2018-05-17T03:53:04.781Z,27.27
2018-05-17T03:55:32.410Z,29.63
2018-05-17T03:58:01.960Z,28.07
2018-05-17T04:00:41.598Z,28.43
2018-05-17T04:03:21.090Z,28.17
2018-05-17T04:06:01.607Z,27.47
2018-05-17T04:08:29.366Z,28.13
2018-05-17T04:10:57.712Z,29.17
2018-05-17T04:13:26.232Z,29.63
2018-05-17T04:15:53.932Z,28.73
2018-05-17T04:18:22.343Z,28.90
2018-05-17T04:20:50.073Z,29.30
2018-05-17T04:23:17.907Z,27.63
2018-05-17T04:25:45.526Z,26.70
2018-05-17T04:28:14.101Z,26.67
2018-05-17T04:30:42.635Z,29.63
2018-05-17T04:33:10.412Z,30.27
2018-05-17T04:35:38.268Z,30.27
2018-05-17T04:38:06.481Z,30.50
2018-05-17T04:40:35.089Z,29.93
2018-05-17T04:43:02.892Z,28.77
2018-05-17T04:45:30.520Z,31.17
2018-05-17T04:47:58.165Z,31.57
2018-05-17T04:50:26.698Z,31.40
2018-05-17T04:52:54.465Z,29.50
2018-05-17T04:55:22.332Z,30.37
2018-05-17T04:57:50.096Z,32.30
2018-05-17T05:00:17.929Z,31.40
2018-05-17T05:02:45.668Z,31.70
2018-05-17T05:05:13.317Z,31.30
2018-05-17T05:07:41.157Z,30.27
2018-05-17T05:10:09.023Z,31.10
2018-05-17T05:12:38.032Z,32.13
2018-05-17T05:15:05.706Z,31.23
2018-05-17T05:17:33.487Z,31.27
2018-05-17T05:20:02.067Z,33.17
2018-05-17T05:22:30.528Z,33.63
2018-05-17T05:24:58.192Z,32.07
2018-05-17T05:27:27.084Z,32.43
2018-05-17T05:29:54.909Z,32.93
2018-05-17T05:32:22.604Z,34.10
2018-05-17T05:34:50.584Z,33.40
2018-05-17T05:37:18.358Z,32.27
2018-05-17T05:39:46.007Z,33.23
2018-05-17T05:42:13.661Z,33.03
2018-05-17T05:44:41.319Z,31.97
2018-05-17T05:47:08.970Z,32.83
2018-05-17T05:49:36.656Z,32.13
2018-05-17T05:52:04.434Z,32.77
2018-05-17T05:54:32.065Z,31.30
2018-05-17T05:56:59.954Z,32.80
2018-05-17T05:59:27.640Z,31.90
2018-05-17T06:01:56.056Z,31.67
2018-05-17T06:04:23.684Z,31.63
2018-05-17T06:06:52.152Z,30.53
2018-05-17T06:09:19.803Z,31.20
2018-05-17T06:11:47.749Z,31.27
2018-05-17T06:14:15.420Z,31.43
2018-05-17T06:16:43.084Z,30.03
2018-05-17T06:19:10.940Z,30.00
2018-05-17T06:21:38.778Z,28.90
2018-05-17T06:24:06.467Z,29.23
2018-05-17T06:26:34.132Z,28.13
2018-05-17T06:29:01.897Z,28.77
2018-05-17T06:31:29.763Z,29.00
2018-05-17T06:33:57.433Z,28.33
2018-05-17T06:36:25.193Z,28.10
2018-05-17T06:38:54.084Z,28.73
2018-05-17T06:41:21.710Z,27.40
2018-05-17T06:43:49.419Z,26.90
2018-05-17T06:46:17.172Z,25.73
2018-05-17T06:48:44.811Z,26.43
2018-05-17T06:51:12.456Z,26.83
2018-05-17T06:53:40.260Z,25.77
2018-05-17T06:56:07.953Z,25.73
2018-05-17T06:58:35.717Z,25.73
2018-05-17T07:01:03.431Z,24.97
2018-05-17T07:03:31.808Z,25.90
2018-05-17T07:05:59.597Z,25.67
2018-05-17T07:08:27.463Z,25.67
2018-05-17T07:10:55.140Z,25.90
2018-05-17T07:13:22.937Z,24.77
2018-05-17T07:15:51.372Z,25.83
2018-05-17T07:18:19.206Z,24.30
2018-05-17T07:20:46.812Z,24.80
2018-05-17T07:23:14.768Z,23.70
2018-05-17T07:25:42.417Z,23.33
2018-05-17T07:28:10.055Z,23.23
2018-05-17T07:30:38.541Z,21.67
2018-05-17T07:33:06.285Z,22.13
2018-05-17T07:35:34.862Z,21.90
2018-05-17T07:38:02.690Z,21.97
2018-05-17T07:40:30.459Z,21.80
2018-05-17T07:42:58.120Z,21.73
2018-05-17T07:45:25.828Z,21.77
2018-05-17T07:47:54.261Z,21.53
2018-05-17T07:50:21.883Z,21.13
2018-05-17T07:52:50.298Z,21.30
2018-05-17T07:55:17.951Z,21.33
2018-05-17T07:57:45.661Z,23.77
2018-05-17T08:00:13.391Z,21.30
2018-05-17T08:02:41.076Z,22.07
2018-05-17T08:05:08.818Z,20.87
2018-05-17T08:07:36.515Z,21.10
2018-05-17T08:10:04.141Z,20.90
2018-05-17T08:12:31.833Z,20.50
2018-05-17T08:15:00.263Z,21.13
2018-05-17T08:17:28.058Z,20.47
2018-05-17T08:19:56.668Z,20.40
2018-05-17T08:22:24.288Z,20.33
2018-05-17T08:24:52.113Z,20.43
2018-05-17T08:27:20.572Z,19.70
2018-05-17T08:29:48.311Z,19.03
2018-05-17T08:32:16.074Z,19.20
2018-05-17T08:34:43.839Z,18.57
2018-05-17T08:37:11.539Z,18.17
2018-05-17T08:39:39.184Z,16.60
2018-05-17T08:42:06.932Z,16.87
2018-05-17T08:44:35.377Z,16.20
2018-05-17T08:47:03.897Z,15.63
2018-05-17T08:49:31.768Z,14.43
2018-05-17T08:51:59.483Z,14.83
2018-05-17T08:54:27.327Z,15.47
2018-05-17T08:56:55.010Z,13.77
2018-05-17T08:59:23.436Z,14.40
2018-05-17T09:01:51.129Z,13.37
2018-05-17T09:04:18.768Z,12.97
2018-05-17T09:06:46.413Z,12.63
2018-05-17T09:09:14.286Z,12.20
2018-05-17T09:11:41.980Z,11.60
2018-05-17T09:14:09.651Z,11.97
2018-05-17T09:16:37.307Z,12.43
2018-05-17T09:19:04.924Z,11.40
2018-05-17T09:21:32.749Z,11.77
2018-05-17T09:24:01.203Z,11.37
2018-05-17T09:26:28.832Z,11.53
2018-05-17T09:28:56.609Z,10.97
2018-05-17T09:31:24.236Z,10.57
2018-05-17T09:33:52.056Z,11.40
2018-05-17T09:36:20.561Z,11.10
2018-05-17T09:38:48.996Z,10.77
2018-05-17T09:41:16.755Z,9.90
2018-05-17T09:43:44.457Z,10.53
2018-05-17T09:46:12.122Z,10.07
2018-05-17T09:48:39.775Z,9.77
2018-05-17T09:51:08.337Z,9.97
2018-05-17T09:53:36.100Z,9.97
2018-05-17T09:56:03.864Z,9.00
2018-05-17T09:58:31.630Z,10.10
2018-05-17T10:00:59.326Z,9.90
2018-05-17T10:03:27.979Z,10.07
2018-05-17T10:05:55.634Z,9.23
2018-05-17T10:08:23.386Z,10.07
2018-05-17T10:10:51.055Z,10.20
2018-05-17T10:13:18.681Z,10.03
2018-05-17T10:15:47.208Z,11.00
2018-05-17T10:18:15.013Z,10.40
2018-05-17T10:20:42.843Z,9.97
2018-05-17T10:23:10.642Z,10.50
2018-05-17T10:25:38.396Z,10.03
2018-05-17T10:28:06.240Z,10.23
2018-05-17T10:30:33.911Z,10.37
2018-05-17T10:33:01.598Z,9.67
2018-05-17T10:35:29.232Z,10.20
2018-05-17T10:37:56.904Z,10.93
2018-05-17T10:40:24.577Z,10.10
2018-05-17T10:42:52.389Z,9.70
2018-05-17T10:45:20.010Z,9.50
2018-05-17T10:47:47.682Z,10.13
2018-05-17T10:50:16.129Z,10.93
2018-05-17T10:52:43.772Z,10.63
2018-05-17T10:55:11.443Z,10.87
2018-05-17T10:57:39.419Z,10.43
2018-05-17T11:00:07.188Z,10.90
2018-05-17T11:02:34.920Z,9.93
2018-05-17T11:05:02.540Z,10.50
2018-05-17T11:07:30.377Z,10.80
2018-05-17T11:09:58.041Z,10.33
2018-05-17T11:12:25.689Z,10.53
2018-05-17T11:14:53.394Z,10.43
2018-05-17T11:17:21.889Z,10.70
2018-05-17T11:19:50.297Z,10.23
2018-05-17T11:22:18.008Z,10.90
2018-05-17T11:24:45.686Z,10.23
2018-05-17T11:27:14.237Z,10.83
2018-05-17T11:29:42.842Z,10.70
2018-05-17T11:32:10.651Z,10.43
2018-05-17T11:34:38.331Z,10.60
2018-05-17T11:37:05.951Z,11.80
2018-05-17T11:39:34.533Z,10.97
2018-05-17T11:42:03.009Z,11.60
2018-05-17T11:44:31.559Z,11.50
2018-05-17T11:46:59.231Z,12.50
2018-05-17T11:49:26.893Z,11.47
2018-05-17T11:51:54.552Z,12.17
2018-05-17T11:54:22.311Z,12.43
2018-05-17T11:56:50.187Z,11.87
2018-05-17T11:59:17.804Z,12.43
2018-05-17T12:01:45.499Z,12.60
2018-05-17T12:04:13.150Z,12.53
2018-05-17T12:06:40.852Z,12.47
2018-05-17T12:09:08.525Z,12.00
2018-05-17T12:11:36.320Z,12.37
2018-05-17T12:14:04.016Z,12.47
2018-05-17T12:16:31.927Z,12.67
2018-05-17T12:19:00.468Z,11.30
2018-05-17T12:21:28.124Z,11.93
2018-05-17T12:23:55.773Z,12.27
2018-05-17T12:26:23.433Z,11.53
2018-05-17T12:28:51.160Z,10.73
2018-05-17T12:31:19.637Z,12.67
2018-05-17T12:33:48.111Z,11.37
2018-05-17T12:36:15.949Z,11.47
2018-05-17T12:38:43.579Z,12.20
2018-05-17T12:41:11.297Z,11.30
2018-05-17T12:43:38.965Z,11.60
2018-05-17T12:46:06.609Z,12.40
2018-05-17T12:48:34.465Z,11.70
2018-05-17T12:51:02.116Z,11.80
2018-05-17T12:53:29.787Z,11.70
2018-05-17T12:55:57.427Z,11.90
2018-05-17T12:58:25.219Z,12.17
2018-05-17T13:00:52.925Z,11.33
2018-05-17T13:03:21.303Z,11.53
2018-05-17T13:05:49.775Z,11.27
2018-05-17T13:08:18.427Z,11.43
2018-05-17T13:10:46.810Z,10.40
2018-05-17T13:13:14.455Z,10.93
2018-05-17T13:15:42.234Z,10.80
2018-05-17T13:18:09.899Z,10.30
2018-05-17T13:20:37.581Z,10.93
2018-05-17T13:23:05.429Z,11.40
2018-05-17T13:25:33.093Z,11.00
2018-05-17T13:28:00.711Z,10.73
2018-05-17T13:30:29.440Z,11.03
2018-05-17T13:32:57.097Z,11.60
2018-05-17T13:35:24.733Z,12.00
2018-05-17T13:37:52.632Z,11.47
2018-05-17T13:40:21.052Z,10.77
2018-05-17T13:42:49.525Z,10.77
2018-05-17T13:45:17.183Z,10.40
2018-05-17T13:47:45.122Z,10.90
2018-05-17T13:50:12.812Z,11.50
2018-05-17T13:52:40.548Z,10.73
2018-05-17T13:55:08.232Z,10.53
2018-05-17T13:57:36.009Z,11.43
2018-05-17T14:00:04.419Z,11.10
2018-05-17T14:02:32.977Z,11.30
2018-05-17T14:05:00.708Z,10.77
2018-05-17T14:07:28.380Z,10.77
2018-05-17T14:09:56.135Z,10.90
2018-05-17T14:12:23.915Z,9.60
2018-05-17T14:14:51.764Z,10.47
2018-05-17T14:17:19.538Z,11.03
2018-05-17T14:19:47.200Z,9.87
2018-05-17T14:22:14.880Z,10.30
2018-05-17T14:24:42.717Z,10.70
2018-05-17T14:27:10.387Z,11.50
2018-05-17T14:29:38.009Z,11.40
2018-05-17T14:32:05.681Z,12.60
2018-05-17T14:34:33.469Z,11.67
2018-05-17T14:37:01.103Z,11.83
2018-05-17T14:39:28.902Z,11.77
2018-05-17T14:41:56.530Z,11.33
2018-05-17T14:44:24.187Z,11.43
2018-05-17T14:46:51.888Z,11.63
2018-05-17T14:49:19.557Z,11.17
2018-05-17T14:51:47.314Z,11.20
2018-05-17T14:54:15.931Z,11.37
2018-05-17T14:56:43.767Z,11.00
2018-05-17T14:59:11.530Z,11.40
2018-05-17T15:01:39.184Z,10.97
2018-05-17T15:04:06.832Z,10.43
2018-05-17T15:06:34.597Z,10.07
2018-05-17T15:09:02.384Z,10.43
2018-05-17T15:11:30.097Z,10.53
2018-05-17T15:13:58.751Z,10.07
2018-05-17T15:16:26.503Z,10.77
2018-05-17T15:18:54.296Z,10.20
2018-05-17T15:21:22.054Z,9.87
2018-05-17T15:23:49.705Z,10.10
2018-05-17T15:26:17.337Z,10.73
2018-05-17T15:28:45.041Z,10.40
2018-05-17T15:31:12.826Z,11.50
2018-05-17T15:33:41.276Z,10.27
2018-05-17T15:36:09.139Z,9.93
2018-05-17T15:38:36.893Z,9.93
2018-05-17T15:41:04.690Z,9.70
2018-05-17T15:43:32.522Z,10.70
2018-05-17T15:46:00.292Z,10.33
2018-05-17T15:48:29.132Z,10.37
2018-05-17T15:50:57.408Z,11.00
2018-05-17T15:53:26.038Z,11.47
2018-05-17T15:55:53.666Z,10.47
2018-05-17T15:58:21.387Z,10.17
2018-05-17T16:00:49.057Z,11.10
2018-05-17T16:03:16.896Z,10.83
2018-05-17T16:05:44.663Z,11.97
2018-05-17T16:08:12.289Z,11.50
2018-05-17T16:10:39.965Z,12.00
2018-05-17T16:13:07.752Z,11.60
2018-05-17T16:15:35.579Z,12.23
2018-05-17T16:18:04.010Z,12.07
2018-05-17T16:20:31.861Z,10.97
2018-05-17T16:22:59.831Z,12.97
2018-05-17T16:25:27.475Z,12.23
2018-05-17T16:27:55.090Z,12.93
2018-05-17T16:30:22.921Z,12.20
2018-05-17T16:32:50.691Z,12.10
2018-05-17T16:35:18.376Z,12.00
2018-05-17T16:37:46.116Z,12.07
2018-05-17T16:40:13.753Z,12.57
2018-05-17T16:42:41.419Z,11.27
2018-05-17T16:45:09.305Z,12.20
2018-05-17T16:47:36.927Z,13.07
2018-05-17T16:50:04.669Z,10.73
2018-05-17T16:52:33.191Z,11.63
2018-05-17T16:55:00.964Z,11.90
2018-05-17T16:57:28.749Z,12.27
2018-05-17T16:59:56.422Z,13.53
2018-05-17T17:02:24.101Z,12.57
2018-05-17T17:04:51.738Z,13.53
2018-05-17T17:07:19.498Z,13.33
2018-05-17T17:09:47.164Z,14.07
2018-05-17T17:12:14.809Z,13.73
2018-05-17T17:14:42.585Z,13.27
2018-05-17T17:17:10.563Z,14.17
2018-05-17T17:19:38.350Z,14.73
2018-05-17T17:22:06.037Z,15.10
2018-05-17T17:24:35.183Z,14.17
2018-05-17T17:27:02.862Z,13.67
2018-05-17T17:29:30.605Z,14.43
2018-05-17T17:31:58.237Z,14.37
2018-05-17T17:34:25.943Z,15.37
2018-05-17T17:36:53.700Z,14.63
2018-05-17T17:39:21.460Z,15.07
2018-05-17T17:41:49.223Z,14.87
2018-05-17T17:44:16.845Z,13.90
2018-05-17T17:46:45.265Z,15.17
2018-05-17T17:49:13.008Z,14.97
2018-05-17T17:51:41.409Z,14.50
2018-05-17T17:54:09.174Z,12.97
2018-05-17T17:56:36.946Z,13.20
2018-05-17T17:59:04.666Z,13.23
2018-05-17T18:01:33.683Z,13.90
2018-05-17T18:04:01.806Z,14.03
2018-05-17T18:06:29.943Z,14.20
2018-05-17T18:08:58.228Z,14.37
2018-05-17T18:11:28.503Z,14.23
2018-05-17T18:13:56.351Z,12.33
2018-05-17T18:16:24.829Z,12.50
2018-05-17T18:18:52.698Z,13.00
2018-05-17T18:21:23.073Z,12.30
2018-05-17T18:23:50.771Z,12.80
2018-05-17T18:26:18.393Z,12.47
2018-05-17T18:28:46.041Z,12.07
2018-05-17T18:31:14.671Z,12.93
2018-05-17T18:33:42.489Z,12.30
2018-05-17T18:36:10.400Z,12.17
2018-05-17T18:38:38.084Z,11.90
2018-05-17T18:41:05.803Z,11.93
2018-05-17T18:43:33.485Z,11.43
2018-05-17T18:46:01.190Z,12.27
2018-05-17T18:48:29.614Z,11.90
2018-05-17T18:50:57.396Z,11.57
2018-05-17T18:53:25.074Z,11.30
2018-05-17T18:56:00.063Z,11.07
2018-05-17T18:58:28.776Z,10.70
2018-05-17T19:00:57.199Z,10.73
2018-05-17T19:03:26.988Z,10.93
2018-05-17T19:05:56.479Z,11.60
2018-05-17T19:08:25.467Z,11.50
2018-05-17T19:10:54.973Z,11.20
2018-05-17T19:13:23.020Z,11.23
2018-05-17T19:15:56.484Z,11.10
2018-05-17T19:18:26.703Z,11.37
2018-05-17T19:20:57.258Z,10.83
2018-05-17T19:23:25.161Z,10.27
2018-05-17T19:25:55.801Z,10.00
2018-05-17T19:28:24.257Z,10.23
2018-05-17T19:30:53.483Z,9.83
2018-05-17T19:33:21.345Z,10.17
2018-05-17T19:35:49.188Z,10.00
2018-05-17T19:38:16.811Z,9.97
2018-05-17T19:40:45.199Z,10.47
2018-05-17T19:43:13.652Z,10.33
2018-05-17T19:45:41.275Z,10.97
2018-05-17T19:48:10.433Z,10.23
2018-05-17T19:50:38.144Z,9.63
2018-05-17T19:53:06.019Z,10.13
2018-05-17T19:55:33.647Z,10.10
2018-05-17T19:58:01.586Z,9.70
2018-05-17T20:00:29.356Z,9.93
2018-05-17T20:02:57.737Z,9.60
2018-05-17T20:05:26.129Z,10.10
2018-05-17T20:07:54.672Z,10.50
2018-05-17T20:10:22.421Z,9.20
2018-05-17T20:12:50.196Z,9.47
2018-05-17T20:15:18.052Z,10.20
2018-05-17T20:17:45.735Z,10.03
2018-05-17T20:20:13.525Z,11.33
2018-05-17T20:22:41.944Z,10.33
2018-05-17T20:25:09.724Z,10.07
2018-05-17T20:27:37.433Z,10.47
2018-05-17T20:30:05.904Z,9.70
2018-05-17T20:32:33.681Z,10.00
2018-05-17T20:35:02.267Z,10.00
2018-05-17T20:37:30.910Z,9.77
2018-05-17T20:39:58.977Z,10.23
2018-05-17T20:42:27.744Z,9.67
2018-05-17T20:44:55.400Z,9.33
2018-05-17T20:47:23.192Z,8.80
2018-05-17T20:49:51.059Z,9.27
2018-05-17T20:52:18.760Z,8.97
2018-05-17T20:54:46.595Z,9.20
2018-05-17T20:57:14.320Z,9.67
2018-05-17T20:59:42.119Z,9.60
2018-05-17T21:02:09.835Z,9.40
2018-05-17T21:04:38.317Z,9.87
2018-05-17T21:07:05.956Z,9.30
2018-05-17T21:09:33.681Z,9.73
2018-05-17T21:12:01.559Z,10.07
2018-05-17T21:14:29.193Z,9.33
2018-05-17T21:16:56.876Z,9.30
2018-05-17T21:19:24.581Z,10.30
2018-05-17T21:21:53.004Z,9.90
2018-05-17T21:24:20.820Z,10.00
2018-05-17T21:26:48.499Z,9.33
2018-05-17T21:29:16.989Z,9.23
2018-05-17T21:31:45.411Z,10.40
2018-05-17T21:34:13.074Z,9.30
2018-05-17T21:36:40.790Z,9.47
2018-05-17T21:39:08.554Z,9.00
2018-05-17T21:41:36.930Z,9.13
2018-05-17T21:44:05.368Z,9.23
2018-05-17T21:46:32.976Z,9.23
2018-05-17T21:49:01.614Z,9.50
2018-05-17T21:51:29.232Z,9.10
2018-05-17T21:53:57.633Z,9.70
2018-05-17T21:56:25.276Z,9.00
2018-05-17T21:58:53.729Z,10.50
2018-05-17T22:01:21.353Z,9.43
2018-05-17T22:03:49.000Z,9.53
2018-05-17T22:06:16.788Z,9.60
2018-05-17T22:08:44.448Z,9.73
2018-05-17T22:11:12.155Z,10.10
2018-05-17T22:13:40.604Z,10.27
2018-05-17T22:16:08.356Z,10.83
2018-05-17T22:18:36.126Z,9.73
2018-05-17T22:21:03.778Z,9.47
2018-05-17T22:23:31.449Z,10.27
2018-05-17T22:25:59.312Z,9.43
2018-05-17T22:28:27.008Z,10.10
2018-05-17T22:30:54.842Z,10.07
2018-05-17T22:33:22.647Z,9.10
2018-05-17T22:35:51.232Z,9.67
2018-05-17T22:38:19.778Z,10.23
2018-05-17T22:40:47.399Z,10.53
2018-05-17T22:43:15.949Z,10.90
2018-05-17T22:45:43.784Z,11.40
2018-05-17T22:48:11.411Z,10.23
2018-05-17T22:50:39.944Z,10.70
2018-05-17T22:53:07.693Z,10.27
2018-05-17T22:55:35.371Z,10.63
2018-05-17T22:58:14.916Z,11.10
2018-05-17T23:00:42.765Z,10.50
2018-05-17T23:03:10.456Z,10.37
2018-05-17T23:05:38.082Z,10.80
2018-05-17T23:08:05.855Z,10.20
2018-05-17T23:10:33.652Z,9.57
2018-05-17T23:13:01.346Z,10.43
2018-05-17T23:15:29.014Z,9.57
2018-05-17T23:17:56.811Z,9.83
2018-05-17T23:20:24.432Z,9.23
2018-05-17T23:22:52.986Z,9.53
2018-05-17T23:25:20.645Z,9.13
2018-05-17T23:27:48.314Z,8.93
2018-05-17T23:30:15.944Z,9.57
2018-05-17T23:32:43.563Z,9.03
2018-05-17T23:35:11.984Z,8.83
2018-05-17T23:37:39.747Z,9.50
2018-05-17T23:40:19.406Z,9.27
2018-05-17T23:42:47.159Z,8.53
2018-05-17T23:45:14.949Z,9.23
2018-05-17T23:47:42.560Z,9.23
2018-05-17T23:50:10.356Z,9.50
2018-05-17T23:52:38.144Z,9.20
2018-05-17T23:55:05.764Z,9.13
2018-05-17T23:57:33.641Z,9.10
